19 Feb 2019 09:28 UTC 2019050+09:28 UTC

Overview Datums Bench Marks Data Query Site Visit Daily QC Messages Attributes

170: National Park Service - Baffin Bay

27° 17' 49" N   97° 24' 17" W
NPSBB
United States National Park Service United States National Park Service

Station Information

National Park Service - Baffin Bay
National Park Service - Baffin Bay
more pictures
 
Station Name:National Park Service - Baffin Bay
DNR ID:170
Location:27° 17' 49" N, 97° 24' 17" W

Water Level Forecasts

Latest Observations

Series Metric English Marine Observed at
Water Temperature 15.5 °C 59.9 °F 59.9 °F Feb 19 03:12 CST
00h07m ago
Salinity 27.600 psu 27.600 psu 27.600 psu Feb 19 03:12 CST
00h07m ago
pH 8.04 pH 8.04 pH 8.04 pH Feb 19 03:12 CST
00h07m ago
Turbidity 50 ntu 50 ntu 50 ntu Feb 19 03:12 CST
00h07m ago
Dissolved Oxygen 7.56 mg/L 0.000472 lb/ft3 0.000472 lb/ft3 Feb 19 03:12 CST
00h07m ago

Maps

National Park Service - Baffin Bay
All Stations in Area
Entire Network
 

Recent Observations

Date/Time Water
Temp (°F)
Sal (psu) pH (pH) Turb (ntu) DO (lb/ft3)
Feb 19 03:00 CST 59.7 27.700 8.05 42 0.000471
Feb 19 02:00 CST 59.7 27.700 8.05 39 0.000473
Feb 19 01:00 CST 59.9 27.700 8.05 36 0.000474
Feb 19 00:00 CST 59.9 27.700 8.05 39 0.000474
Feb 18 23:00 CST 59.9 27.800 8.06 42 0.000473
Feb 18 22:00 CST 60.1 27.800 8.06 43 0.000473
Feb 18 21:00 CST 60.3 27.800 8.06 50 0.000472
Feb 18 20:00 CST 60.3 27.800 8.06 60 0.000474
Feb 18 19:00 CST 60.6 27.800 8.07 62 0.000476
Feb 18 18:00 CST 61.0 27.800 8.08 52 0.000484
Feb 18 17:00 CST 61.5 27.800 8.08 43 0.000485
Feb 18 16:00 CST 61.7 27.800 8.07 44 0.000481
Feb 18 15:00 CST 62.1 27.800 8.07 32 0.000484
Feb 18 14:00 CST 61.9 27.800 8.07 34 0.000484
Feb 18 13:00 CST 62.1 27.800 8.05 52 0.000473
Feb 18 12:00 CST 61.7 27.800 8.04 56 0.000476
Feb 18 11:00 CST 61.2 27.900 8.03 66 0.000472
Feb 18 10:00 CST 61.2 27.900 8.04 67 0.000468
Feb 18 09:00 CST 61.2 27.900 8.03 71 0.000465
Feb 18 08:00 CST 61.0 27.900 8.03 70 0.000461
Feb 18 07:00 CST 61.3 27.900 8.04 74 0.000460
Feb 18 06:00 CST 61.7 27.900 8.03 78 0.000456
Feb 18 05:00 CST 62.2 27.900 8.04 69 0.000452
Feb 18 04:00 CST 62.6 27.900 8.05 71 0.000451
Feb 18 03:00 CST 63.3 27.900 8.07 70 0.000445

Historical Data Availability